Baoda — BGAC — position and weather

sailwx.info

Track history (hours):
 
Tides and Currents Weather Stations Pressure Air Temp Water Temp Dewpoint Dewpoint Depression Visibility Wind Speed Wind Dir Waves Ship Positions

Baoda

Last reported at 2017-Nov-18 04:30 UTC. Time now 2017-Nov-18 04:44 UTC.
Position N 36°36' E 030°34'.

Length 6 m; draft 10 m.

Type: Ship. MMSI: 412345678.

Date/timePositionNaut miles runAvg speedWind from/ knotsBaromVisibWave heightAir tempDewpointWater temp
2017-Nov-18 04:30N 36°36' E 030°34'0 0.0
2017-Nov-18 04:00N 36°36' E 030°34'0 0.0
2017-Nov-18 03:27N 36°36' E 030°34'0 0.0
2017-Nov-18 03:00N 36°36' E 030°34'0 0.0
2017-Nov-18 02:24N 36°36' E 030°34'0 0.0
2017-Nov-18 01:57N 36°36' E 030°34'0 0.0
2017-Nov-18 01:30N 36°36' E 030°34'0 0.0
2017-Nov-18 01:00N 36°36' E 030°34'0 0.0
2017-Nov-18 00:30N 36°36' E 030°34'0 0.0
2017-Nov-18 00:00N 36°36' E 030°34'0 0.0
2017-Nov-17 23:24N 36°36' E 030°34'0 0.0
2017-Nov-17 23:00N 36°36' E 030°34'0 0.0
2017-Nov-17 22:30N 36°36' E 030°34'0 0.0
2017-Nov-17 22:00N 36°36' E 030°34'0 0.0
2017-Nov-17 21:30N 36°36' E 030°34'0 0.0
2017-Nov-17 21:00N 36°36' E 030°34'44243810.3
2017-Nov-17 19:51N 22°14' E 113°36'5 6.3
2017-Nov-17 19:00N 22°09' E 113°37'8 5.1
2017-Nov-17 17:30N 22°02' E 113°36'3 5.5
2017-Nov-17 17:01N 21°59' E 113°34'3 6.0
2017-Nov-17 16:30N 21°57' E 113°33'3 6.6
2017-Nov-17 16:01N 21°54' E 113°31'44314006.3
2017-Nov-17 14:54N 36°36' E 030°34'0 0.0
2017-Nov-17 14:30N 36°36' E 030°34'0 0.0
2017-Nov-17 14:00N 36°36' E 030°34'0 0.0
2017-Nov-17 13:30N 36°36' E 030°34'0 0.0
2017-Nov-17 13:00N 36°36' E 030°34'0 0.0
2017-Nov-17 12:30N 36°36' E 030°34'0 0.0
2017-Nov-17 12:00N 36°36' E 030°34'0 0.0
2017-Nov-17 11:30N 36°36' E 030°34'0 0.0
2017-Nov-17 11:00N 36°36' E 030°34'0 0.0
2017-Nov-17 10:30N 36°36' E 030°34'0 0.0
2017-Nov-17 09:57N 36°36' E 030°34'0 0.0
2017-Nov-17 09:30N 36°36' E 030°34'0 0.0
2017-Nov-17 09:00N 36°36' E 030°34'0 0.0
2017-Nov-17 08:30N 36°36' E 030°34'0 0.0
2017-Nov-17 08:00N 36°36' E 030°34'0 0.0
2017-Nov-17 07:30N 36°36' E 030°34'0 0.0
2017-Nov-17 07:00N 36°36' E 030°34'0 0.0
2017-Nov-17 06:30N 36°36' E 030°34'0 0.0
2017-Nov-17 06:00N 36°36' E 030°34'0 0.0
2017-Nov-17 05:30N 36°36' E 030°34'0 0.0
2017-Nov-17 05:00N 36°36' E 030°34'0 0.0
2017-Nov-17 04:30N 36°36' E 030°34'0 0.0
2017-Nov-17 04:00N 36°36' E 030°34'0 0.0
2017-Nov-17 03:30N 36°36' E 030°34'0 0.0
2017-Nov-17 02:57N 36°36' E 030°34'0 0.0
2017-Nov-17 02:30N 36°36' E 030°34'0 0.0
2017-Nov-17 02:00N 36°36' E 030°34'0 0.0
2017-Nov-17 01:30N 36°36' E 030°34'0 0.0
2017-Nov-17 01:00N 36°36' E 030°34'0 0.0
2017-Nov-17 00:30N 36°36' E 030°34'0 0.0
2017-Nov-17 00:00N 36°36' E 030°34'0 0.0
2017-Nov-16 23:30N 36°36' E 030°34'0 0.0
2017-Nov-16 23:00N 36°36' E 030°34'0 0.0
2017-Nov-16 22:27N 36°36' E 030°34'0 0.0
2017-Nov-16 16:00N 36°36' E 030°34'0 0.0
2017-Nov-16 15:30N 36°36' E 030°34'0 0.0
2017-Nov-16 14:54N 36°36' E 030°34'0 0.0
2017-Nov-16 14:30N 36°36' E 030°34'0 0.0
2017-Nov-16 14:00N 36°36' E 030°34'0 0.0
2017-Nov-16 13:30N 36°36' E 030°34'0 0.0
2017-Nov-16 13:00N 36°36' E 030°34'0 0.0
2017-Nov-16 12:30N 36°36' E 030°34'0 0.0
2017-Nov-16 12:00N 36°36' E 030°34'0 0.0
2017-Nov-16 11:30N 36°36' E 030°34'0 0.0
2017-Nov-16 11:00N 36°36' E 030°34'0 0.0
2017-Nov-16 10:27N 36°36' E 030°34'0 0.0
2017-Nov-16 10:00N 36°36' E 030°34'0 0.0
2017-Nov-16 09:30N 36°36' E 030°34'0 0.0
2017-Nov-16 09:00N 36°36' E 030°34'0 0.0
2017-Nov-16 08:30N 36°36' E 030°34'0 0.0
2017-Nov-16 08:00N 36°36' E 030°34'0 0.0
2017-Nov-16 07:30N 36°36' E 030°34'43486565.8
2017-Nov-16 06:50N 37°36' E 121°25'434812861.9
2017-Nov-16 06:30N 36°36' E 030°34'0 0.0
2017-Nov-16 06:00N 36°36' E 030°34'0 0.0
2017-Nov-16 05:30N 36°36' E 030°34'0 0.0
2017-Nov-16 05:00N 36°36' E 030°34'0 0.0
2017-Nov-16 04:30N 36°36' E 030°34'0 0.0
2017-Nov-16 04:00N 36°36' E 030°34'0 0.0
2017-Nov-16 03:30N 36°36' E 030°34'0 0.0
2017-Nov-15 20:00N 36°36' E 030°34'0 0.0
2017-Nov-15 19:30N 36°36' E 030°34'0 0.0
2017-Nov-15 19:00N 36°36' E 030°34'0 0.0
2017-Nov-15 16:30N 36°36' E 030°34'0 0.0
2017-Nov-15 16:00N 36°36' E 030°34'0 0.0
2017-Nov-15 15:30N 36°36' E 030°34'0 0.0
2017-Nov-15 15:00N 36°36' E 030°34'0 0.0
2017-Nov-15 14:30N 36°36' E 030°34'0 0.0
2017-Nov-15 14:00N 36°36' E 030°34'0 0.0
2017-Nov-15 13:30N 36°36' E 030°34'0 0.0
2017-Nov-15 13:00N 36°36' E 030°34'0 0.0
2017-Nov-15 12:30N 36°36' E 030°34'0 0.0
2017-Nov-15 12:00N 36°36' E 030°34'0 0.0
2017-Nov-15 11:30N 36°36' E 030°34'0 0.0
2017-Nov-15 11:00N 36°36' E 030°34'0 0.0
2017-Nov-15 10:30N 36°36' E 030°34'0 0.0
2017-Nov-15 10:00N 36°36' E 030°34'0 0.0
2017-Nov-15 09:30N 36°36' E 030°34'0 0.0
2017-Nov-15 09:00N 36°36' E 030°34'0 0.0
2017-Nov-15 08:30N 36°36' E 030°34'0 0.0
2017-Nov-15 08:00N 36°36' E 030°34'0 0.0
2017-Nov-15 07:30N 36°36' E 030°34'0 0.0
2017-Nov-15 07:00N 36°36' E 030°34'0 0.0
2017-Nov-15 06:30N 36°36' E 030°34'0 0.0
2017-Nov-15 06:00N 36°36' E 030°34'0 0.0
2017-Nov-15 05:30N 36°36' E 030°34'4434341.2
2017-Nov-14 16:30N 21°47' E 113°31'3 6.8
2017-Nov-14 16:01N 21°51' E 113°31'4 7.0
2017-Nov-14 15:30N 21°54' E 113°33'4 7.1
2017-Nov-14 15:00N 21°57' E 113°34'44322943.5
2017-Nov-14 13:30N 36°36' E 030°34'0 0.0
2017-Nov-14 13:00N 36°36' E 030°34'0 0.0
2017-Nov-14 12:30N 36°36' E 030°34'0 0.0
2017-Nov-14 12:00N 36°36' E 030°34'0 0.0
2017-Nov-14 11:30N 36°36' E 030°34'0 0.0
2017-Nov-14 11:00N 36°36' E 030°34'0 0.0
2017-Nov-14 10:30N 36°36' E 030°34'0 0.0
2017-Nov-14 10:00N 36°36' E 030°34'0 0.0
2017-Nov-14 09:27N 36°36' E 030°34'0 0.0
2017-Nov-14 09:00N 36°36' E 030°34'0 0.0
2017-Nov-14 08:30N 36°36' E 030°34'0 0.0
2017-Nov-14 08:00N 36°36' E 030°34'0 0.0
2017-Nov-14 07:30N 36°36' E 030°34'0 0.0
2017-Nov-12 08:05N 36°36' E 030°34'0 0.0
2017-Nov-12 07:59N 36°36' E 030°34'0 0.0
2017-Nov-12 06:23N 36°36' E 030°34'0 0.0
2017-Nov-12 05:47N 36°36' E 030°34'0 0.0
2017-Nov-12 05:29N 36°36' E 030°34'0 0.0
2017-Nov-12 04:53N 36°36' E 030°34'0 0.0
2017-Nov-12 04:29N 36°36' E 030°34'0 0.0
2017-Nov-12 03:59N 36°36' E 030°34'0 0.0
2017-Nov-12 03:29N 36°36' E 030°34'0 0.0
2017-Nov-12 02:59N 36°36' E 030°34'0 0.0
2017-Nov-12 02:23N 36°36' E 030°34'0 0.0
2017-Nov-12 01:53N 36°36' E 030°34'0 0.0
2017-Nov-12 01:23N 36°36' E 030°34'0 0.0
2017-Nov-12 00:59N 36°36' E 030°34'0 0.0
2017-Nov-12 00:29N 36°36' E 030°34'0 0.0
2017-Nov-11 23:59N 36°36' E 030°34'0 0.0
2017-Nov-11 23:29N 36°36' E 030°34'0 0.0
2017-Nov-11 22:47N 36°36' E 030°34'0 0.0
2017-Nov-11 22:29N 36°36' E 030°34'0 0.0
2017-Nov-11 21:59N 36°36' E 030°34'0 0.0
2017-Nov-11 21:29N 36°36' E 030°34'0 0.0
2017-Nov-11 20:59N 36°36' E 030°34'0 0.0
2017-Nov-11 18:41N 36°36' E 030°34'0 0.0
2017-Nov-11 14:17N 36°36' E 030°34'0 0.0
2017-Nov-11 13:59N 36°36' E 030°34'0 0.0
2017-Nov-11 13:29N 36°36' E 030°34'0 0.0
2017-Nov-11 12:59N 36°36' E 030°34'0 0.0
2017-Nov-11 12:29N 36°36' E 030°34'0 0.0
2017-Nov-11 11:59N 36°36' E 030°34'0 0.0
2017-Nov-11 11:29N 36°36' E 030°34'0 0.0
2017-Nov-11 10:59N 36°36' E 030°34'0 0.0
2017-Nov-11 10:29N 36°36' E 030°34'0 0.0
2017-Nov-11 09:59N 36°36' E 030°34'43994634.8
2017-Nov-11 09:02N 22°12' E 113°06'43997986.4
2017-Nov-11 08:29N 36°36' E 030°34'0 0.0
2017-Nov-11 07:59N 36°36' E 030°34'0 0.0
2017-Nov-11 07:23N 36°36' E 030°34'0 0.0
2017-Nov-11 06:23N 36°36' E 030°34'0 0.0
2017-Nov-11 05:59N 36°36' E 030°34'0 0.0
2017-Nov-11 05:29N 36°36' E 030°34'0 0.0
2017-Nov-11 04:29N 36°36' E 030°34'0 0.0
2017-Nov-11 03:59N 36°36' E 030°34'0 0.0
2017-Nov-11 03:29N 36°36' E 030°34'0 0.0
2017-Nov-11 02:59N 36°36' E 030°34'0 0.0
2017-Nov-11 02:29N 36°36' E 030°34'0 0.0
2017-Nov-11 01:59N 36°36' E 030°34'0 0.0
2017-Nov-11 01:17N 36°36' E 030°34'0 0.0
2017-Nov-11 00:59N 36°36' E 030°34'0 0.0
2017-Nov-11 00:29N 36°36' E 030°34'0 0.0
2017-Nov-10 23:59N 36°36' E 030°34'0 0.0
2017-Nov-10 23:29N 36°36' E 030°34'0 0.0
2017-Nov-10 22:59N 36°36' E 030°34'0 0.0
2017-Nov-10 22:29N 36°36' E 030°34'0 0.0
2017-Nov-10 21:59N 36°36' E 030°34'0 0.0
2017-Nov-10 21:11N 36°36' E 030°34'0 0.0
2017-Nov-10 20:59N 36°36' E 030°34'0 0.0
2017-Nov-10 20:29N 36°36' E 030°34'0 0.0
2017-Nov-10 19:59N 36°36' E 030°34'0 0.0
2017-Nov-10 19:23N 36°36' E 030°34'0 0.0
2017-Nov-10 17:11N 36°36' E 030°34'0 0.0
2017-Nov-10 16:59N 36°36' E 030°34'0 0.0
2017-Nov-10 16:23N 36°36' E 030°34'0 0.0
2017-Nov-10 15:59N 36°36' E 030°34'0 0.0
2017-Nov-10 15:29N 36°36' E 030°34'0 0.0
2017-Nov-10 14:59N 36°36' E 030°34'0 0.0
2017-Nov-10 14:29N 36°36' E 030°34'0 0.0
2017-Nov-10 13:20N 36°36' E 030°34'0 0.0
2017-Nov-10 12:59N 36°36' E 030°34'0 0.0
2017-Nov-10 12:29N 36°36' E 030°34'0 0.0
2017-Nov-10 11:59N 36°36' E 030°34'0 0.0
2017-Nov-10 11:29N 36°36' E 030°34'0 0.0
2017-Nov-10 10:59N 36°36' E 030°34'0 0.0
2017-Nov-10 10:20N 36°36' E 030°34'0 0.0
2017-Nov-10 09:59N 36°36' E 030°34'0 0.0
2017-Nov-10 09:29N 36°36' E 030°34'0 0.0
2017-Nov-10 08:59N 36°36' E 030°34'0 0.0
2017-Nov-10 08:29N 36°36' E 030°34'0 0.0
2017-Nov-10 07:59N 36°36' E 030°34'0 0.0
2017-Nov-10 07:29N 36°36' E 030°34'0 0.0
2017-Nov-10 06:53N 36°36' E 030°34'0 0.0
2017-Nov-10 06:29N 36°36' E 030°34'0 0.0
2017-Nov-10 05:53N 36°36' E 030°34'0 0.0
2017-Nov-10 05:29N 36°36' E 030°34'0 0.0
2017-Nov-10 04:47N 36°36' E 030°34'0 0.0
2017-Nov-10 04:29N 36°36' E 030°34'0 0.0
2017-Nov-10 03:47N 36°36' E 030°34'0 0.0
2017-Nov-10 03:29N 36°36' E 030°34'0 0.0
2017-Nov-10 02:53N 36°36' E 030°34'0 0.0
2017-Nov-10 02:29N 36°36' E 030°34'0 0.0
2017-Nov-10 01:23N 36°36' E 030°34'0 0.0
2017-Nov-09 06:00N 36°36' E 030°34'0 0.0
2017-Nov-09 05:30N 36°36' E 030°34'0 0.0
2017-Nov-09 05:00N 36°36' E 030°34'0 0.0
2017-Nov-09 04:21N 36°36' E 030°34'0 0.0
2017-Nov-09 03:51N 36°36' E 030°34'0 0.0
2017-Nov-09 03:21N 36°36' E 030°34'0 0.0
2017-Nov-09 02:57N 36°36' E 030°34'0 0.0
2017-Nov-09 02:09N 36°36' E 030°34'0 0.0
2017-Nov-09 01:57N 36°36' E 030°34'0 0.0
2017-Nov-09 01:27N 36°36' E 030°34'0 0.0
2017-Nov-09 00:57N 36°36' E 030°34'0 0.0
2017-Nov-09 00:30N 36°36' E 030°34'0 0.0
2017-Nov-08 23:51N 36°36' E 030°34'0 0.0
2017-Nov-08 23:21N 36°36' E 030°34'0 0.0
2017-Nov-08 22:57N 36°36' E 030°34'0 0.0
2017-Nov-08 22:27N 36°36' E 030°34'0 0.0
2017-Nov-08 19:09N 36°36' E 030°34'0 0.0
2017-Nov-08 18:57N 36°36' E 030°34'0 0.0
2017-Nov-08 18:27N 36°36' E 030°34'0 0.0
2017-Nov-08 17:51N 36°36' E 030°34'0 0.0
2017-Nov-08 16:24N 36°36' E 030°34'0 0.0
2017-Nov-08 16:00N 36°36' E 030°34'0 0.0
2017-Nov-08 15:24N 36°36' E 030°34'0 0.0
2017-Nov-08 15:00N 36°36' E 030°34'0 0.0
2017-Nov-08 14:30N 36°36' E 030°34'0 0.0
2017-Nov-08 13:57N 36°36' E 030°34'0 0.0
2017-Nov-08 13:27N 36°36' E 030°34'0 0.0
2017-Nov-08 12:57N 36°36' E 030°34'0 0.0
2017-Nov-08 12:27N 36°36' E 030°34'0 0.0
2017-Nov-08 11:57N 36°36' E 030°34'0 0.0
2017-Nov-08 11:30N 36°36' E 030°34'0 0.0
2017-Nov-08 11:00N 36°36' E 030°34'0 0.0
2017-Nov-08 10:27N 36°36' E 030°34'0 0.0
2017-Nov-08 09:57N 36°36' E 030°34'0 0.0
2017-Nov-08 09:27N 36°36' E 030°34'0 0.0
2017-Nov-08 08:51N 36°36' E 030°34'0 0.0
2017-Nov-08 08:27N 36°36' E 030°34'0 0.0
2017-Nov-08 07:57N 36°36' E 030°34'0 0.0
2017-Nov-08 07:27N 36°36' E 030°34'0 0.0
2017-Nov-08 06:57N 36°36' E 030°34'0 0.0
2017-Nov-08 06:27N 36°36' E 030°34'0 0.0
2017-Nov-08 05:57N 36°36' E 030°34'0 0.0
2017-Nov-08 05:21N 36°36' E 030°34'0 0.0
2017-Nov-08 04:57N 36°36' E 030°34'  
Track history (hours):
 
Tides and Currents Weather Stations Pressure Air Temp Water Temp Dewpoint Dewpoint Depression Visibility Wind Speed Wind Dir Waves Ship Positions

Baoda

Last reported at 2017-Nov-18 04:30 UTC. Time now 2017-Nov-18 04:44 UTC.
Position N 36°36' E 030°34'.

Length 6 m; draft 10 m.

Type: Ship. MMSI: 412345678.

Date/timePositionNaut miles runAvg speedWind from/ knotsBaromVisibWave heightAir tempDewpointWater temp
2017-Nov-18 04:30N 36°36' E 030°34'0 0.0
2017-Nov-18 04:00N 36°36' E 030°34'0 0.0
2017-Nov-18 03:27N 36°36' E 030°34'0 0.0
2017-Nov-18 03:00N 36°36' E 030°34'0 0.0
2017-Nov-18 02:24N 36°36' E 030°34'0 0.0
2017-Nov-18 01:57N 36°36' E 030°34'0 0.0
2017-Nov-18 01:30N 36°36' E 030°34'0 0.0
2017-Nov-18 01:00N 36°36' E 030°34'0 0.0
2017-Nov-18 00:30N 36°36' E 030°34'0 0.0
2017-Nov-18 00:00N 36°36' E 030°34'0 0.0
2017-Nov-17 23:24N 36°36' E 030°34'0 0.0
2017-Nov-17 23:00N 36°36' E 030°34'0 0.0
2017-Nov-17 22:30N 36°36' E 030°34'0 0.0
2017-Nov-17 22:00N 36°36' E 030°34'0 0.0
2017-Nov-17 21:30N 36°36' E 030°34'0 0.0
2017-Nov-17 21:00N 36°36' E 030°34'44243810.3
2017-Nov-17 19:51N 22°14' E 113°36'5 6.3
2017-Nov-17 19:00N 22°09' E 113°37'8 5.1
2017-Nov-17 17:30N 22°02' E 113°36'3 5.5
2017-Nov-17 17:01N 21°59' E 113°34'3 6.0
2017-Nov-17 16:30N 21°57' E 113°33'3 6.6
2017-Nov-17 16:01N 21°54' E 113°31'44314006.3
2017-Nov-17 14:54N 36°36' E 030°34'0 0.0
2017-Nov-17 14:30N 36°36' E 030°34'0 0.0
2017-Nov-17 14:00N 36°36' E 030°34'0 0.0
2017-Nov-17 13:30N 36°36' E 030°34'0 0.0
2017-Nov-17 13:00N 36°36' E 030°34'0 0.0
2017-Nov-17 12:30N 36°36' E 030°34'0 0.0
2017-Nov-17 12:00N 36°36' E 030°34'0 0.0
2017-Nov-17 11:30N 36°36' E 030°34'0 0.0
2017-Nov-17 11:00N 36°36' E 030°34'0 0.0
2017-Nov-17 10:30N 36°36' E 030°34'0 0.0
2017-Nov-17 09:57N 36°36' E 030°34'0 0.0
2017-Nov-17 09:30N 36°36' E 030°34'0 0.0
2017-Nov-17 09:00N 36°36' E 030°34'0 0.0
2017-Nov-17 08:30N 36°36' E 030°34'0 0.0
2017-Nov-17 08:00N 36°36' E 030°34'0 0.0
2017-Nov-17 07:30N 36°36' E 030°34'0 0.0
2017-Nov-17 07:00N 36°36' E 030°34'0 0.0
2017-Nov-17 06:30N 36°36' E 030°34'0 0.0
2017-Nov-17 06:00N 36°36' E 030°34'0 0.0
2017-Nov-17 05:30N 36°36' E 030°34'0 0.0
2017-Nov-17 05:00N 36°36' E 030°34'0 0.0
2017-Nov-17 04:30N 36°36' E 030°34'0 0.0
2017-Nov-17 04:00N 36°36' E 030°34'0 0.0
2017-Nov-17 03:30N 36°36' E 030°34'0 0.0
2017-Nov-17 02:57N 36°36' E 030°34'0 0.0
2017-Nov-17 02:30N 36°36' E 030°34'0 0.0
2017-Nov-17 02:00N 36°36' E 030°34'0 0.0
2017-Nov-17 01:30N 36°36' E 030°34'0 0.0
2017-Nov-17 01:00N 36°36' E 030°34'0 0.0
2017-Nov-17 00:30N 36°36' E 030°34'0 0.0
2017-Nov-17 00:00N 36°36' E 030°34'0 0.0
2017-Nov-16 23:30N 36°36' E 030°34'0 0.0
2017-Nov-16 23:00N 36°36' E 030°34'0 0.0
2017-Nov-16 22:27N 36°36' E 030°34'0 0.0
2017-Nov-16 16:00N 36°36' E 030°34'0 0.0
2017-Nov-16 15:30N 36°36' E 030°34'0 0.0
2017-Nov-16 14:54N 36°36' E 030°34'0 0.0
2017-Nov-16 14:30N 36°36' E 030°34'0 0.0
2017-Nov-16 14:00N 36°36' E 030°34'0 0.0
2017-Nov-16 13:30N 36°36' E 030°34'0 0.0
2017-Nov-16 13:00N 36°36' E 030°34'0 0.0
2017-Nov-16 12:30N 36°36' E 030°34'0 0.0
2017-Nov-16 12:00N 36°36' E 030°34'0 0.0
2017-Nov-16 11:30N 36°36' E 030°34'0 0.0
2017-Nov-16 11:00N 36°36' E 030°34'0 0.0
2017-Nov-16 10:27N 36°36' E 030°34'0 0.0
2017-Nov-16 10:00N 36°36' E 030°34'0 0.0
2017-Nov-16 09:30N 36°36' E 030°34'0 0.0
2017-Nov-16 09:00N 36°36' E 030°34'0 0.0
2017-Nov-16 08:30N 36°36' E 030°34'0 0.0
2017-Nov-16 08:00N 36°36' E 030°34'0 0.0
2017-Nov-16 07:30N 36°36' E 030°34'43486565.8
2017-Nov-16 06:50N 37°36' E 121°25'434812861.9
2017-Nov-16 06:30N 36°36' E 030°34'0 0.0
2017-Nov-16 06:00N 36°36' E 030°34'0 0.0
2017-Nov-16 05:30N 36°36' E 030°34'0 0.0
2017-Nov-16 05:00N 36°36' E 030°34'0 0.0
2017-Nov-16 04:30N 36°36' E 030°34'0 0.0
2017-Nov-16 04:00N 36°36' E 030°34'0 0.0
2017-Nov-16 03:30N 36°36' E 030°34'0 0.0
2017-Nov-15 20:00N 36°36' E 030°34'0 0.0
2017-Nov-15 19:30N 36°36' E 030°34'0 0.0
2017-Nov-15 19:00N 36°36' E 030°34'0 0.0
2017-Nov-15 16:30N 36°36' E 030°34'0 0.0
2017-Nov-15 16:00N 36°36' E 030°34'0 0.0
2017-Nov-15 15:30N 36°36' E 030°34'0 0.0
2017-Nov-15 15:00N 36°36' E 030°34'0 0.0
2017-Nov-15 14:30N 36°36' E 030°34'0 0.0
2017-Nov-15 14:00N 36°36' E 030°34'0 0.0
2017-Nov-15 13:30N 36°36' E 030°34'0 0.0
2017-Nov-15 13:00N 36°36' E 030°34'0 0.0
2017-Nov-15 12:30N 36°36' E 030°34'0 0.0
2017-Nov-15 12:00N 36°36' E 030°34'0 0.0
2017-Nov-15 11:30N 36°36' E 030°34'0 0.0
2017-Nov-15 11:00N 36°36' E 030°34'0 0.0
2017-Nov-15 10:30N 36°36' E 030°34'0 0.0
2017-Nov-15 10:00N 36°36' E 030°34'0 0.0
2017-Nov-15 09:30N 36°36' E 030°34'0 0.0
2017-Nov-15 09:00N 36°36' E 030°34'0 0.0
2017-Nov-15 08:30N 36°36' E 030°34'0 0.0
2017-Nov-15 08:00N 36°36' E 030°34'0 0.0
2017-Nov-15 07:30N 36°36' E 030°34'0 0.0
2017-Nov-15 07:00N 36°36' E 030°34'0 0.0
2017-Nov-15 06:30N 36°36' E 030°34'0 0.0
2017-Nov-15 06:00N 36°36' E 030°34'0 0.0
2017-Nov-15 05:30N 36°36' E 030°34'4434341.2
2017-Nov-14 16:30N 21°47' E 113°31'3 6.8
2017-Nov-14 16:01N 21°51' E 113°31'4 7.0
2017-Nov-14 15:30N 21°54' E 113°33'4 7.1
2017-Nov-14 15:00N 21°57' E 113°34'44322943.5
2017-Nov-14 13:30N 36°36' E 030°34'0 0.0
2017-Nov-14 13:00N 36°36' E 030°34'0 0.0
2017-Nov-14 12:30N 36°36' E 030°34'0 0.0
2017-Nov-14 12:00N 36°36' E 030°34'0 0.0
2017-Nov-14 11:30N 36°36' E 030°34'0 0.0
2017-Nov-14 11:00N 36°36' E 030°34'0 0.0
2017-Nov-14 10:30N 36°36' E 030°34'0 0.0
2017-Nov-14 10:00N 36°36' E 030°34'0 0.0
2017-Nov-14 09:27N 36°36' E 030°34'0 0.0
2017-Nov-14 09:00N 36°36' E 030°34'0 0.0
2017-Nov-14 08:30N 36°36' E 030°34'0 0.0
2017-Nov-14 08:00N 36°36' E 030°34'0 0.0
2017-Nov-14 07:30N 36°36' E 030°34'0 0.0
2017-Nov-12 08:05N 36°36' E 030°34'0 0.0
2017-Nov-12 07:59N 36°36' E 030°34'0 0.0
2017-Nov-12 06:23N 36°36' E 030°34'0 0.0
2017-Nov-12 05:47N 36°36' E 030°34'0 0.0
2017-Nov-12 05:29N 36°36' E 030°34'0 0.0
2017-Nov-12 04:53N 36°36' E 030°34'0 0.0
2017-Nov-12 04:29N 36°36' E 030°34'0 0.0
2017-Nov-12 03:59N 36°36' E 030°34'0 0.0
2017-Nov-12 03:29N 36°36' E 030°34'0 0.0
2017-Nov-12 02:59N 36°36' E 030°34'0 0.0
2017-Nov-12 02:23N 36°36' E 030°34'0 0.0
2017-Nov-12 01:53N 36°36' E 030°34'0 0.0
2017-Nov-12 01:23N 36°36' E 030°34'0 0.0
2017-Nov-12 00:59N 36°36' E 030°34'0 0.0
2017-Nov-12 00:29N 36°36' E 030°34'0 0.0
2017-Nov-11 23:59N 36°36' E 030°34'0 0.0
2017-Nov-11 23:29N 36°36' E 030°34'0 0.0
2017-Nov-11 22:47N 36°36' E 030°34'0 0.0
2017-Nov-11 22:29N 36°36' E 030°34'0 0.0
2017-Nov-11 21:59N 36°36' E 030°34'0 0.0
2017-Nov-11 21:29N 36°36' E 030°34'0 0.0
2017-Nov-11 20:59N 36°36' E 030°34'0 0.0
2017-Nov-11 18:41N 36°36' E 030°34'0 0.0
2017-Nov-11 14:17N 36°36' E 030°34'0 0.0
2017-Nov-11 13:59N 36°36' E 030°34'0 0.0
2017-Nov-11 13:29N 36°36' E 030°34'0 0.0
2017-Nov-11 12:59N 36°36' E 030°34'0 0.0
2017-Nov-11 12:29N 36°36' E 030°34'0 0.0
2017-Nov-11 11:59N 36°36' E 030°34'0 0.0
2017-Nov-11 11:29N 36°36' E 030°34'0 0.0
2017-Nov-11 10:59N 36°36' E 030°34'0 0.0
2017-Nov-11 10:29N 36°36' E 030°34'0 0.0
2017-Nov-11 09:59N 36°36' E 030°34'43994634.8
2017-Nov-11 09:02N 22°12' E 113°06'43997986.4
2017-Nov-11 08:29N 36°36' E 030°34'0 0.0
2017-Nov-11 07:59N 36°36' E 030°34'0 0.0
2017-Nov-11 07:23N 36°36' E 030°34'0 0.0
2017-Nov-11 06:23N 36°36' E 030°34'0 0.0
2017-Nov-11 05:59N 36°36' E 030°34'0 0.0
2017-Nov-11 05:29N 36°36' E 030°34'0 0.0
2017-Nov-11 04:29N 36°36' E 030°34'0 0.0
2017-Nov-11 03:59N 36°36' E 030°34'0 0.0
2017-Nov-11 03:29N 36°36' E 030°34'0 0.0
2017-Nov-11 02:59N 36°36' E 030°34'0 0.0
2017-Nov-11 02:29N 36°36' E 030°34'0 0.0
2017-Nov-11 01:59N 36°36' E 030°34'0 0.0
2017-Nov-11 01:17N 36°36' E 030°34'0 0.0
2017-Nov-11 00:59N 36°36' E 030°34'0 0.0
2017-Nov-11 00:29N 36°36' E 030°34'0 0.0
2017-Nov-10 23:59N 36°36' E 030°34'0 0.0
2017-Nov-10 23:29N 36°36' E 030°34'0 0.0
2017-Nov-10 22:59N 36°36' E 030°34'0 0.0
2017-Nov-10 22:29N 36°36' E 030°34'0 0.0
2017-Nov-10 21:59N 36°36' E 030°34'0 0.0
2017-Nov-10 21:11N 36°36' E 030°34'0 0.0
2017-Nov-10 20:59N 36°36' E 030°34'0 0.0
2017-Nov-10 20:29N 36°36' E 030°34'0 0.0
2017-Nov-10 19:59N 36°36' E 030°34'0 0.0
2017-Nov-10 19:23N 36°36' E 030°34'0 0.0
2017-Nov-10 17:11N 36°36' E 030°34'0 0.0
2017-Nov-10 16:59N 36°36' E 030°34'0 0.0
2017-Nov-10 16:23N 36°36' E 030°34'0 0.0
2017-Nov-10 15:59N 36°36' E 030°34'0 0.0
2017-Nov-10 15:29N 36°36' E 030°34'0 0.0
2017-Nov-10 14:59N 36°36' E 030°34'0 0.0
2017-Nov-10 14:29N 36°36' E 030°34'0 0.0
2017-Nov-10 13:20N 36°36' E 030°34'0 0.0
2017-Nov-10 12:59N 36°36' E 030°34'0 0.0
2017-Nov-10 12:29N 36°36' E 030°34'0 0.0
2017-Nov-10 11:59N 36°36' E 030°34'0 0.0
2017-Nov-10 11:29N 36°36' E 030°34'0 0.0
2017-Nov-10 10:59N 36°36' E 030°34'0 0.0
2017-Nov-10 10:20N 36°36' E 030°34'0 0.0
2017-Nov-10 09:59N 36°36' E 030°34'0 0.0
2017-Nov-10 09:29N 36°36' E 030°34'0 0.0
2017-Nov-10 08:59N 36°36' E 030°34'0 0.0
2017-Nov-10 08:29N 36°36' E 030°34'0 0.0
2017-Nov-10 07:59N 36°36' E 030°34'0 0.0
2017-Nov-10 07:29N 36°36' E 030°34'0 0.0
2017-Nov-10 06:53N 36°36' E 030°34'0 0.0
2017-Nov-10 06:29N 36°36' E 030°34'0 0.0
2017-Nov-10 05:53N 36°36' E 030°34'0 0.0
2017-Nov-10 05:29N 36°36' E 030°34'0 0.0
2017-Nov-10 04:47N 36°36' E 030°34'0 0.0
2017-Nov-10 04:29N 36°36' E 030°34'0 0.0
2017-Nov-10 03:47N 36°36' E 030°34'0 0.0
2017-Nov-10 03:29N 36°36' E 030°34'0 0.0
2017-Nov-10 02:53N 36°36' E 030°34'0 0.0
2017-Nov-10 02:29N 36°36' E 030°34'0 0.0
2017-Nov-10 01:23N 36°36' E 030°34'0 0.0
2017-Nov-09 06:00N 36°36' E 030°34'0 0.0
2017-Nov-09 05:30N 36°36' E 030°34'0 0.0
2017-Nov-09 05:00N 36°36' E 030°34'0 0.0
2017-Nov-09 04:21N 36°36' E 030°34'0 0.0
2017-Nov-09 03:51N 36°36' E 030°34'0 0.0
2017-Nov-09 03:21N 36°36' E 030°34'0 0.0
2017-Nov-09 02:57N 36°36' E 030°34'0 0.0
2017-Nov-09 02:09N 36°36' E 030°34'0 0.0
2017-Nov-09 01:57N 36°36' E 030°34'0 0.0
2017-Nov-09 01:27N 36°36' E 030°34'0 0.0
2017-Nov-09 00:57N 36°36' E 030°34'0 0.0
2017-Nov-09 00:30N 36°36' E 030°34'0 0.0
2017-Nov-08 23:51N 36°36' E 030°34'0 0.0
2017-Nov-08 23:21N 36°36' E 030°34'0 0.0
2017-Nov-08 22:57N 36°36' E 030°34'0 0.0
2017-Nov-08 22:27N 36°36' E 030°34'0 0.0
2017-Nov-08 19:09N 36°36' E 030°34'0 0.0
2017-Nov-08 18:57N 36°36' E 030°34'0 0.0
2017-Nov-08 18:27N 36°36' E 030°34'0 0.0
2017-Nov-08 17:51N 36°36' E 030°34'0 0.0
2017-Nov-08 16:24N 36°36' E 030°34'0 0.0
2017-Nov-08 16:00N 36°36' E 030°34'0 0.0
2017-Nov-08 15:24N 36°36' E 030°34'0 0.0
2017-Nov-08 15:00N 36°36' E 030°34'0 0.0
2017-Nov-08 14:30N 36°36' E 030°34'0 0.0
2017-Nov-08 13:57N 36°36' E 030°34'0 0.0
2017-Nov-08 13:27N 36°36' E 030°34'0 0.0
2017-Nov-08 12:57N 36°36' E 030°34'0 0.0
2017-Nov-08 12:27N 36°36' E 030°34'0 0.0
2017-Nov-08 11:57N 36°36' E 030°34'0 0.0
2017-Nov-08 11:30N 36°36' E 030°34'0 0.0
2017-Nov-08 11:00N 36°36' E 030°34'0 0.0
2017-Nov-08 10:27N 36°36' E 030°34'0 0.0
2017-Nov-08 09:57N 36°36' E 030°34'0 0.0
2017-Nov-08 09:27N 36°36' E 030°34'0 0.0
2017-Nov-08 08:51N 36°36' E 030°34'0 0.0
2017-Nov-08 08:27N 36°36' E 030°34'0 0.0
2017-Nov-08 07:57N 36°36' E 030°34'0 0.0
2017-Nov-08 07:27N 36°36' E 030°34'0 0.0
2017-Nov-08 06:57N 36°36' E 030°34'0 0.0
2017-Nov-08 06:27N 36°36' E 030°34'0 0.0
2017-Nov-08 05:57N 36°36' E 030°34'0 0.0
2017-Nov-08 05:21N 36°36' E 030°34'0 0.0
2017-Nov-08 04:57N 36°36' E 030°34'  

Dump ship's entire track history